createdAt,value
2018-12-24T00:01:17.193Z,101554.39
2018-12-24T00:04:05.515Z,101552.84
2018-12-24T00:06:46.403Z,101556.10
2018-12-24T00:09:34.892Z,101560.53
2018-12-24T00:12:17.882Z,101557.59
2018-12-24T00:15:06.547Z,101568.13
2018-12-24T00:17:47.763Z,101576.66
2018-12-24T00:20:36.150Z,101577.03
2018-12-24T00:23:17.791Z,101582.58
2018-12-24T00:26:06.127Z,101588.37
2018-12-24T00:28:46.858Z,101594.23
2018-12-24T00:31:35.766Z,101593.37
2018-12-24T00:34:16.696Z,101600.95
2018-12-24T00:37:04.905Z,101605.26
2018-12-24T00:39:45.793Z,101607.24
2018-12-24T00:42:34.400Z,101619.92
2018-12-24T00:45:15.791Z,101628.92
2018-12-24T00:48:04.063Z,101644.12
2018-12-24T00:50:47.426Z,101648.57
2018-12-24T00:53:35.745Z,101650.89
2018-12-24T00:56:20.107Z,101664.45
2018-12-24T00:59:08.674Z,101678.31
2018-12-24T01:01:49.530Z,101676.84
2018-12-24T01:04:37.816Z,101683.21
2018-12-24T01:07:19.624Z,101690.48
2018-12-24T01:10:07.948Z,101681.77
2018-12-24T01:12:49.558Z,101693.70
2018-12-24T01:15:38.448Z,101694.06
2018-12-24T01:18:21.254Z,101701.52
2018-12-24T01:21:09.650Z,101707.95
2018-12-24T01:23:50.721Z,101707.11
2018-12-24T01:26:38.997Z,101709.23
2018-12-24T01:29:08.242Z,101715.82
2018-12-24T01:31:37.429Z,101724.52
2018-12-24T01:34:18.689Z,101732.70
2018-12-24T01:37:06.970Z,101743.30
2018-12-24T01:39:48.734Z,101746.09
2018-12-24T01:42:36.989Z,101757.27
2018-12-24T01:45:37.697Z,101762.15
2018-12-24T01:48:26.354Z,101766.91
2018-12-24T01:51:07.432Z,101768.41
2018-12-24T01:53:55.744Z,101771.36
2018-12-24T01:56:39.098Z,101781.97
2018-12-24T01:59:27.662Z,101787.33
2018-12-24T02:02:09.471Z,101799.86
2018-12-24T02:04:58.362Z,101806.30
2018-12-24T02:07:39.106Z,101811.61
2018-12-24T02:10:27.528Z,101817.94
2018-12-24T02:13:09.053Z,101816.89
2018-12-24T02:15:57.554Z,101826.77
2018-12-24T02:18:38.681Z,101834.70
2018-12-24T02:21:26.986Z,101834.84
2018-12-24T02:24:10.429Z,101844.69
2018-12-24T02:26:58.862Z,101854.14
2018-12-24T02:29:40.364Z,101858.38
2018-12-24T02:32:28.329Z,101869.23
2018-12-24T02:35:10.078Z,101875.53
2018-12-24T02:37:58.396Z,101876.04
2018-12-24T02:40:39.830Z,101883.22
2018-12-24T02:43:28.144Z,101887.89
2018-12-24T02:46:09.656Z,101886.84
2018-12-24T02:48:58.321Z,101887.99
2018-12-24T02:51:39.815Z,101897.91
2018-12-24T02:54:21.186Z,101905.83
2018-12-24T02:57:02.857Z,101910.80
2018-12-24T02:59:44.381Z,101918.49
2018-12-24T03:02:33.175Z,101925.37
2018-12-24T03:05:14.065Z,101928.31
2018-12-24T03:08:02.351Z,101932.97
2018-12-24T03:10:43.855Z,101939.55
2018-12-24T03:13:32.205Z,101943.36
2018-12-24T03:16:13.688Z,101951.27
2018-12-24T03:19:02.059Z,101954.39
2018-12-24T03:21:43.927Z,101968.67
2018-12-24T03:24:25.359Z,101975.70
2018-12-24T03:27:06.684Z,101983.48
2018-12-24T03:29:55.081Z,101981.25
2018-12-24T03:32:36.641Z,101988.25
2018-12-24T03:35:25.347Z,101997.13
2018-12-24T03:38:06.732Z,102008.75
2018-12-24T03:44:22.967Z,102028.37
2018-12-24T03:47:04.281Z,102017.19
2018-12-24T03:49:45.812Z,102021.27
2018-12-24T03:52:34.658Z,102038.70
2018-12-24T03:55:15.817Z,102039.86
2018-12-24T03:58:04.166Z,102042.03
2018-12-24T04:00:46.829Z,102050.19
2018-12-24T04:03:35.802Z,102048.97
2018-12-24T04:06:17.106Z,102060.94
2018-12-24T04:09:06.127Z,102067.17
2018-12-24T04:11:47.049Z,102080.91
2018-12-24T04:14:35.411Z,102088.72
2018-12-24T04:17:16.614Z,102098.13
2018-12-24T04:20:05.157Z,102104.15
2018-12-24T04:22:46.520Z,102114.52
2018-12-24T04:25:40.108Z,102116.69
2018-12-24T04:28:21.718Z,102126.70
2018-12-24T04:31:10.112Z,102138.72
2018-12-24T04:33:51.434Z,102146.81
2018-12-24T04:36:41.277Z,102158.92
2018-12-24T04:39:22.182Z,102167.87
2018-12-24T04:42:10.462Z,102180.77
2018-12-24T04:44:53.227Z,102186.73
2018-12-24T04:47:41.650Z,102198.91
2018-12-24T04:50:22.970Z,102216.15
2018-12-24T04:53:11.442Z,102226.99
2018-12-24T04:55:53.157Z,102228.37
2018-12-24T04:58:42.891Z,102238.09
2018-12-24T05:01:24.063Z,102249.45
2018-12-24T05:04:12.515Z,102261.29
2018-12-24T05:06:54.210Z,102279.38
2018-12-24T05:09:43.241Z,102284.52
2018-12-24T05:12:24.287Z,102289.39
2018-12-24T05:15:12.655Z,102298.03
2018-12-24T05:18:00.500Z,102299.92
2018-12-24T05:20:48.936Z,102317.98
2018-12-24T05:23:30.581Z,102327.16
2018-12-24T05:26:19.034Z,102340.35
2018-12-24T05:29:00.237Z,102349.81
2018-12-24T05:31:48.856Z,102353.84
2018-12-24T05:34:30.797Z,102359.52
2018-12-24T05:37:19.142Z,102370.02
2018-12-24T05:40:00.703Z,102381.34
2018-12-24T05:42:49.147Z,102390.22
2018-12-24T05:45:30.905Z,102398.33
2018-12-24T05:48:22.199Z,102412.91
2018-12-24T05:51:03.847Z,102420.74
2018-12-24T05:53:52.532Z,102422.09
2018-12-24T05:56:35.431Z,102435.02
2018-12-24T05:59:23.716Z,102438.48
2018-12-24T06:02:05.468Z,102448.94
2018-12-24T06:04:53.838Z,102463.20
2018-12-24T06:07:35.532Z,102460.73
2018-12-24T06:10:23.933Z,102461.30
2018-12-24T06:13:05.102Z,102486.63
2018-12-24T06:15:53.478Z,102477.97
2018-12-24T06:18:34.915Z,102495.55
2018-12-24T06:21:23.254Z,102502.18
2018-12-24T06:24:04.866Z,102510.00
2018-12-24T06:26:53.365Z,102515.59
2018-12-24T06:29:34.663Z,102536.13
2018-12-24T06:32:22.985Z,102527.22
2018-12-24T06:35:06.318Z,102529.86
2018-12-24T06:37:54.676Z,102539.84
2018-12-24T06:40:36.502Z,102545.23
2018-12-24T06:43:24.917Z,102559.20
2018-12-24T06:46:06.166Z,102564.59
2018-12-24T06:48:35.400Z,102571.00
2018-12-24T06:51:16.955Z,102573.72
2018-12-24T06:54:05.370Z,102578.03
2018-12-24T06:56:46.294Z,102589.66
2018-12-24T06:59:34.735Z,102602.77
2018-12-24T07:02:15.606Z,102617.88
2018-12-24T07:05:04.554Z,102618.17
2018-12-24T07:07:45.776Z,102631.87
2018-12-24T07:10:34.061Z,102629.50
2018-12-24T07:13:15.252Z,102638.15
2018-12-24T07:16:03.573Z,102654.80
2018-12-24T07:18:44.970Z,102675.86
2018-12-24T07:21:33.379Z,102674.52
2018-12-24T07:24:14.885Z,102682.07
2018-12-24T07:27:03.434Z,102685.02
2018-12-24T07:29:45.115Z,102692.14
2018-12-24T07:32:33.602Z,102699.25
2018-12-24T07:35:14.872Z,102690.19
2018-12-24T07:38:03.208Z,102695.69
2018-12-24T07:40:45.863Z,102691.83
2018-12-24T07:43:34.264Z,102701.64
2018-12-24T07:46:16.399Z,102701.31
2018-12-24T07:49:04.724Z,102706.95
2018-12-24T07:51:46.172Z,102713.69
2018-12-24T07:54:34.657Z,102708.05
2018-12-24T07:57:16.115Z,102719.69
2018-12-24T08:00:04.712Z,102716.76
2018-12-24T08:02:46.377Z,102723.35
2018-12-24T08:05:34.892Z,102725.37
2018-12-24T08:08:16.306Z,102733.23
2018-12-24T08:11:04.651Z,102738.09
2018-12-24T08:13:48.217Z,102740.08
2018-12-24T08:16:36.636Z,102754.34
2018-12-24T08:19:17.789Z,102757.30
2018-12-24T08:21:46.908Z,102757.07
2018-12-24T08:24:28.900Z,102772.12
2018-12-24T08:27:17.440Z,102775.91
2018-12-24T08:29:58.578Z,102783.73
2018-12-24T08:32:47.012Z,102792.37
2018-12-24T08:35:28.491Z,102802.52
2018-12-24T08:38:17.114Z,102803.60
2018-12-24T08:40:59.077Z,102806.59
2018-12-24T08:43:47.626Z,102813.03
2018-12-24T08:46:27.362Z,102817.64
2018-12-24T08:49:16.160Z,102824.82
2018-12-24T08:51:57.497Z,102819.90
2018-12-24T08:54:46.461Z,102826.52
2018-12-24T08:57:25.957Z,102835.04
2018-12-24T09:00:14.356Z,102830.77
2018-12-24T09:02:57.725Z,102845.16
2018-12-24T09:05:46.249Z,102855.33
2018-12-24T09:08:27.511Z,102859.55
2018-12-24T09:11:16.520Z,102859.81
2018-12-24T09:13:57.686Z,102862.41
2018-12-24T09:16:26.698Z,102879.80
2018-12-24T09:18:56.485Z,102882.52
2018-12-24T09:21:45.031Z,102881.60
2018-12-24T09:24:27.021Z,102891.33
2018-12-24T09:27:15.356Z,102893.34
2018-12-24T09:29:56.720Z,102905.99
2018-12-24T09:32:45.213Z,102912.47
2018-12-24T09:35:24.761Z,102912.68
2018-12-24T09:38:13.193Z,102923.59
2018-12-24T09:40:55.043Z,102934.95
2018-12-24T09:43:44.131Z,102934.28
2018-12-24T09:46:25.730Z,102935.56
2018-12-24T09:49:14.155Z,102930.52
2018-12-24T09:51:55.821Z,102933.50
2018-12-24T09:54:44.220Z,102938.68
2018-12-24T09:57:25.925Z,102944.34
2018-12-24T10:00:16.276Z,102948.78
2018-12-24T10:02:59.559Z,102948.78
2018-12-24T10:05:48.503Z,102945.96
2018-12-24T10:08:30.182Z,102948.14
2018-12-24T10:11:18.617Z,102951.27
2018-12-24T10:13:59.843Z,102939.40
2018-12-24T10:16:48.254Z,102950.02
2018-12-24T10:19:29.311Z,102953.98
2018-12-24T10:21:58.662Z,102956.76
2018-12-24T10:24:39.743Z,102959.97
2018-12-24T10:27:28.176Z,102965.67
2018-12-24T10:30:09.576Z,102966.11
2018-12-24T10:32:57.989Z,102963.02
2018-12-24T10:35:39.741Z,102971.51
2018-12-24T10:38:28.132Z,102969.20
2018-12-24T10:41:11.379Z,102972.50
2018-12-24T10:44:00.284Z,102966.20
2018-12-24T10:46:42.296Z,102971.38
2018-12-24T10:49:30.678Z,102979.25
2018-12-24T10:52:12.235Z,102974.11
2018-12-24T10:55:00.551Z,102983.08
2018-12-24T10:57:41.818Z,102982.86
2018-12-24T11:00:30.419Z,102979.33
2018-12-24T11:03:11.844Z,102986.03
2018-12-24T11:06:00.270Z,102986.41
2018-12-24T11:08:43.474Z,102983.23
2018-12-24T11:11:32.592Z,102981.51
2018-12-24T11:14:13.968Z,102975.51
2018-12-24T11:17:02.514Z,102972.85
2018-12-24T11:19:43.884Z,102981.14
2018-12-24T11:22:32.504Z,102987.51
2018-12-24T11:25:15.290Z,102990.09
2018-12-24T11:28:03.839Z,102994.30
2018-12-24T11:30:45.419Z,103009.14
2018-12-24T11:33:33.697Z,103012.80
2018-12-24T11:36:14.998Z,103006.05
2018-12-24T11:42:31.266Z,103011.12
2018-12-24T11:45:14.834Z,103013.04
2018-12-24T11:47:58.059Z,103027.44
2018-12-24T11:50:47.287Z,103023.84
2018-12-24T11:53:28.906Z,103030.22
2018-12-24T11:56:17.518Z,103031.31
2018-12-24T11:59:00.585Z,103043.30
2018-12-24T12:01:48.778Z,103037.83
2018-12-24T12:04:29.784Z,103033.59
2018-12-24T12:07:18.355Z,103029.66
2018-12-24T12:10:00.350Z,103025.81
2018-12-24T12:12:48.776Z,103024.17
2018-12-24T12:15:29.915Z,103010.33
2018-12-24T12:18:18.562Z,103010.36
2018-12-24T12:21:00.012Z,103009.37
2018-12-24T12:23:49.153Z,103009.17
2018-12-24T12:26:30.385Z,103009.46
2018-12-24T12:29:19.131Z,103019.72
2018-12-24T12:32:00.020Z,103016.73
2018-12-24T12:34:48.404Z,103023.76
2018-12-24T12:37:27.792Z,103028.56
2018-12-24T12:40:16.360Z,103038.61
2018-12-24T12:42:58.002Z,103036.98
2018-12-24T12:45:51.257Z,103037.09
2018-12-24T12:48:49.604Z,103041.87
2018-12-24T12:51:38.751Z,103039.20
2018-12-24T12:54:20.300Z,103038.73
2018-12-24T12:57:08.797Z,103034.05
2018-12-24T12:59:50.495Z,103041.04
2018-12-24T13:02:39.065Z,103040.05
2018-12-24T13:05:20.567Z,103041.62
2018-12-24T13:08:08.857Z,103042.52
2018-12-24T13:10:38.274Z,103042.28
2018-12-24T13:13:07.418Z,103042.28
2018-12-24T13:15:49.657Z,103038.84
2018-12-24T13:18:38.035Z,103042.45
2018-12-24T13:21:19.129Z,103040.70
2018-12-24T13:24:07.607Z,103040.19
2018-12-24T13:26:48.607Z,103039.63
2018-12-24T13:29:37.368Z,103042.55
2018-12-24T13:32:20.515Z,103039.11
2018-12-24T13:35:09.030Z,103041.20
2018-12-24T13:37:50.769Z,103037.98
2018-12-24T13:40:39.349Z,103025.31
2018-12-24T13:43:22.097Z,103036.16
2018-12-24T13:45:51.238Z,103044.52
2018-12-24T13:48:32.379Z,103038.31
2018-12-24T13:51:20.705Z,103046.36
2018-12-24T13:54:01.745Z,103051.02
2018-12-24T13:56:50.513Z,103052.07
2018-12-24T13:59:31.932Z,103049.93
2018-12-24T14:02:20.345Z,103044.19
2018-12-24T14:05:02.012Z,103053.38
2018-12-24T14:07:50.428Z,103044.08
2018-12-24T14:10:32.098Z,103035.70
2018-12-24T14:13:20.841Z,103043.58
2018-12-24T14:16:02.436Z,103051.86
2018-12-24T14:18:51.311Z,103049.27
2018-12-24T14:21:32.704Z,103045.44
2018-12-24T14:24:21.194Z,103049.97
2018-12-24T14:27:02.510Z,103050.84
2018-12-24T14:29:50.917Z,103054.66
2018-12-24T14:32:31.869Z,103051.95
2018-12-24T14:35:20.268Z,103056.25
2018-12-24T14:38:01.246Z,103050.59
2018-12-24T14:40:49.728Z,103045.73
2018-12-24T14:43:31.068Z,103043.00
2018-12-24T14:46:25.550Z,103046.23
2018-12-24T14:49:09.606Z,103039.50
2018-12-24T14:51:59.047Z,103049.70
2018-12-24T14:54:40.936Z,103042.61
2018-12-24T14:57:29.347Z,103044.30
2018-12-24T15:00:10.975Z,103060.79
2018-12-24T15:02:59.400Z,103067.27
2018-12-24T15:05:40.193Z,103071.29
2018-12-24T15:08:28.534Z,103062.67
2018-12-24T15:11:10.199Z,103071.00
2018-12-24T15:13:58.593Z,103082.95
2018-12-24T15:16:40.053Z,103078.13
2018-12-24T15:19:09.969Z,103071.11
2018-12-24T15:21:51.019Z,103078.16
2018-12-24T15:24:39.372Z,103066.27
2018-12-24T15:27:20.843Z,103073.56
2018-12-24T15:30:09.453Z,103072.27
2018-12-24T15:32:50.932Z,103065.48
2018-12-24T15:35:39.456Z,103073.88
2018-12-24T15:38:20.686Z,103073.61
2018-12-24T15:41:09.299Z,103079.55
2018-12-24T15:43:50.688Z,103095.23
2018-12-24T15:46:42.741Z,103108.27
2018-12-24T15:49:26.481Z,103104.22
2018-12-24T15:51:55.688Z,103098.27
2018-12-24T15:54:37.307Z,103098.80
2018-12-24T15:57:25.749Z,103091.55
2018-12-24T16:00:08.006Z,103099.98
2018-12-24T16:02:56.357Z,103109.95
2018-12-24T16:05:39.542Z,103118.13
2018-12-24T16:08:28.767Z,103113.80
2018-12-24T16:11:10.509Z,103119.20
2018-12-24T16:13:58.910Z,103120.01
2018-12-24T16:16:40.545Z,103118.36
2018-12-24T16:19:29.564Z,103122.20
2018-12-24T16:22:11.329Z,103123.29
2018-12-24T16:24:59.907Z,103126.81
2018-12-24T16:27:41.250Z,103126.81
2018-12-24T16:30:29.896Z,103129.25
2018-12-24T16:33:11.344Z,103140.30
2018-12-24T16:35:40.377Z,103138.95
2018-12-24T16:38:21.483Z,103140.90
2018-12-24T16:41:09.999Z,103144.94
2018-12-24T16:43:51.216Z,103139.50
2018-12-24T16:46:39.986Z,103139.79
2018-12-24T16:49:20.988Z,103143.34
2018-12-24T16:52:09.313Z,103147.91
2018-12-24T16:54:52.312Z,103153.05
2018-12-24T16:57:41.322Z,103154.12
2018-12-24T17:00:43.680Z,103164.73
2018-12-24T17:03:32.088Z,103161.24
2018-12-24T17:06:13.776Z,103182.53
2018-12-24T17:09:02.249Z,103179.75
2018-12-24T17:11:46.347Z,103179.27
2018-12-24T17:14:34.884Z,103176.05
2018-12-24T17:17:15.784Z,103171.16
2018-12-24T17:20:04.311Z,103181.52
2018-12-24T17:22:45.848Z,103184.27
2018-12-24T17:25:34.257Z,103185.80
2018-12-24T17:28:15.701Z,103181.78
2018-12-24T17:31:04.113Z,103175.74
2018-12-24T17:33:45.849Z,103171.12
2018-12-24T17:36:34.470Z,103168.13
2018-12-24T17:39:15.608Z,103169.53
2018-12-24T17:42:03.971Z,103160.93
2018-12-24T17:44:45.673Z,103154.70
2018-12-24T17:47:27.193Z,103153.38
2018-12-24T17:50:08.426Z,103155.25
2018-12-24T17:52:56.735Z,103155.02
2018-12-24T17:55:37.917Z,103149.84
2018-12-24T17:58:26.394Z,103154.38
2018-12-24T18:01:09.778Z,103141.63
2018-12-24T18:03:58.197Z,103141.19
2018-12-24T18:06:39.177Z,103139.86
2018-12-24T18:09:27.634Z,103139.21
2018-12-24T18:12:08.875Z,103144.91
2018-12-24T18:14:57.317Z,103152.72
2018-12-24T18:17:39.026Z,103149.21
2018-12-24T18:20:27.557Z,103153.61
2018-12-24T18:23:08.388Z,103160.10
2018-12-24T18:25:56.807Z,103167.56
2018-12-24T18:28:37.547Z,103173.30
2018-12-24T18:31:26.306Z,103178.18
2018-12-24T18:34:07.308Z,103184.92
2018-12-24T18:36:55.764Z,103197.13
2018-12-24T18:39:37.800Z,103198.92
2018-12-24T18:42:26.357Z,103197.33
2018-12-24T18:45:07.912Z,103195.47
2018-12-24T18:47:49.775Z,103204.89
2018-12-24T18:50:32.493Z,103214.06
2018-12-24T18:53:21.066Z,103225.23
2018-12-24T18:56:04.312Z,103231.45
2018-12-24T18:58:52.847Z,103231.41
2018-12-24T19:01:34.641Z,103229.83
2018-12-24T19:04:23.799Z,103235.73
2018-12-24T19:07:04.958Z,103238.11
2018-12-24T19:09:53.382Z,103240.88
2018-12-24T19:12:35.124Z,103241.41
2018-12-24T19:15:23.760Z,103246.26
2018-12-24T19:18:06.865Z,103244.28
2018-12-24T19:20:55.551Z,103252.81
2018-12-24T19:23:37.141Z,103259.84
2018-12-24T19:26:25.724Z,103263.33
2018-12-24T19:29:06.779Z,103269.30
2018-12-24T19:31:55.497Z,103266.78
2018-12-24T19:34:36.910Z,103263.25
2018-12-24T19:37:25.588Z,103271.05
2018-12-24T19:40:07.549Z,103273.45
2018-12-24T19:42:56.015Z,103271.45
2018-12-24T19:45:38.596Z,103273.34
2018-12-24T19:48:20.120Z,103266.09
2018-12-24T19:51:01.532Z,103271.49
2018-12-24T19:53:43.356Z,103263.38
2018-12-24T19:56:31.877Z,103263.70
2018-12-24T19:59:13.234Z,103264.73
2018-12-24T20:02:02.277Z,103259.38
2018-12-24T20:04:44.125Z,103267.31
2018-12-24T20:07:32.624Z,103268.01
2018-12-24T20:10:13.800Z,103277.42
2018-12-24T20:13:02.497Z,103281.05
2018-12-24T20:15:43.795Z,103283.97
2018-12-24T20:18:32.082Z,103284.36
2018-12-24T20:21:15.916Z,103282.40
2018-12-24T20:24:04.457Z,103294.48
2018-12-24T20:26:46.592Z,103295.95
2018-12-24T20:29:34.992Z,103307.77
2018-12-24T20:32:04.890Z,103311.57
2018-12-24T20:34:45.931Z,103315.92
2018-12-24T20:37:34.775Z,103322.30
2018-12-24T20:40:16.080Z,103319.97
2018-12-24T20:43:04.682Z,103328.59
2018-12-24T20:45:48.195Z,103330.81
2018-12-24T20:48:29.009Z,103334.67
2018-12-24T20:51:16.067Z,103326.98
2018-12-24T20:54:01.479Z,103338.94
2018-12-24T20:56:30.669Z,103332.27
2018-12-24T20:59:19.438Z,103331.84
2018-12-24T21:01:59.004Z,103337.16
2018-12-24T21:04:47.386Z,103336.11
2018-12-24T21:07:29.257Z,103329.27
2018-12-24T21:10:17.561Z,103331.80
2018-12-24T21:12:58.321Z,103332.80
2018-12-24T21:15:46.734Z,103331.63
2018-12-24T21:18:29.774Z,103331.41
2018-12-24T21:24:46.497Z,103323.52
2018-12-24T21:27:28.221Z,103326.95
2018-12-24T21:30:09.688Z,103323.21
2018-12-24T21:32:58.187Z,103319.80
2018-12-24T21:35:40.057Z,103313.09
2018-12-24T21:38:29.198Z,103304.15
2018-12-24T21:41:10.909Z,103299.18
2018-12-24T21:43:59.365Z,103306.50
2018-12-24T21:46:41.282Z,103317.87
2018-12-24T21:49:22.923Z,103320.23
2018-12-24T21:52:04.643Z,103316.91
2018-12-24T21:54:52.922Z,103309.11
2018-12-24T21:57:34.923Z,103308.75
2018-12-24T22:00:23.457Z,103312.38
2018-12-24T22:03:05.033Z,103311.80
2018-12-24T22:05:53.589Z,103310.88
2018-12-24T22:08:34.474Z,103313.33
2018-12-24T22:11:22.929Z,103306.36
2018-12-24T22:14:04.584Z,103310.56
2018-12-24T22:16:53.222Z,103309.27
2018-12-24T22:19:35.209Z,103308.49
2018-12-24T22:22:23.939Z,103312.59
2018-12-24T22:25:05.006Z,103316.48
2018-12-24T22:27:53.407Z,103314.91
2018-12-24T22:30:34.588Z,103318.67
2018-12-24T22:33:23.004Z,103317.36
2018-12-24T22:36:04.152Z,103314.05
2018-12-24T22:38:52.496Z,103312.26
2018-12-24T22:41:34.263Z,103312.88
2018-12-24T22:44:22.914Z,103315.58
2018-12-24T22:47:03.931Z,103309.61
2018-12-24T22:49:45.815Z,103302.89
2018-12-24T22:52:27.036Z,103302.06
2018-12-24T22:55:15.543Z,103306.08
2018-12-24T22:57:57.226Z,103295.78
2018-12-24T23:04:33.241Z,103288.10
2018-12-24T23:07:16.153Z,103281.91
2018-12-24T23:09:57.719Z,103283.22
2018-12-24T23:12:45.934Z,103279.70
2018-12-24T23:15:27.374Z,103282.19
2018-12-24T23:18:15.905Z,103284.16
2018-12-24T23:20:56.945Z,103282.81
2018-12-24T23:23:45.405Z,103284.37
2018-12-24T23:26:26.405Z,103285.43
2018-12-24T23:29:14.786Z,103282.52
2018-12-24T23:31:56.245Z,103279.92
2018-12-24T23:34:44.732Z,103281.16
2018-12-24T23:37:25.669Z,103281.89
2018-12-24T23:40:14.186Z,103278.88
2018-12-24T23:42:55.743Z,103277.48
2018-12-24T23:45:44.185Z,103287.25
2018-12-24T23:48:26.151Z,103285.75
2018-12-24T23:51:15.692Z,103285.01
2018-12-24T23:53:56.495Z,103281.48
2018-12-24T23:56:44.691Z,103284.33
2018-12-24T23:59:24.190Z,103287.03
